Weather History for Platteville, WI

Change the Weather History Date:

Friday, May 3, 2013

  Actual Average (KDBQ) Record (KDBQ)
Temperature  
Mean Temperature 38 °F 55 °F  
Max Temperature 46 °F 65 °F 88 °F (1949)
Min Temperature 33 °F 44 °F 21 °F (2005)
Degree Days  
Heating Degree Days 26 11  
Month to date heating degree days 33  
Since 1 July heating degree days 6854  
Cooling Degree Days 0 0  
Month to date cooling degree days 0  
Year to date cooling degree days 5  
Moisture  
Dew Point 36 °F    
Average Humidity 91    
Maximum Humidity 100    
Minimum Humidity 87    
Precipitation  
Precipitation 0.68 in 0.13 in 1.90 in (2013)
Month to date precipitation 0.40  
Year to date precipitation 9.08  
Snow  
Snow 0.00 in 0.00 in - ()
Month to date snowfall 0.0  
Since 1 July snowfall 41.9  
Snow Depth -    
Sea Level Pressure  
Sea Level Pressure 30.06 in    
Wind  
Wind Speed 15 mph (NNE)    
Max Wind Speed 21 mph    
Max Gust Speed 24 mph    
Visibility 7 miles    
Events      
T = Trace of Precipitation, MM = Missing Value Source: NWS Daily Summary

Daily Weather History Graph

Daily Weather History Graph

Search for Another Location

Airport:

Trip Planner

Search our weather history database for the weather conditions in past years. The results will help you decide how hot, cold, wet, or windy it might be!

Date:

Astronomy

May. 03, 2013 Rise Set
Actual Time 5:53 AM CDT 8:04 PM CDT
Civil Twilight 5:22 AM CDT 8:35 PM CDT
Nautical Twilight 4:43 AM CDT 9:14 PM CDT
Astronomical Twilight 4:01 AM CDT 9:56 PM CDT
Moon 2:26 AM CDT (5/3) 1:51 PM CDT (5/3)
Length of Visible Light 15h 13m
Length of Day
14h 11m
Last Quarter, 37% of the Moon is Illuminated
May 3
Last Quarter
May 9
New
May 17
First Quarter
May 24
Full
May 31
Last Quarter

Hourly Weather History & Observations

Time (CDT) Temp. Windchill Dew Point Humidity Pressure Visibility Wind Dir Wind Speed Gust Speed Precip Events Conditions
12:15 AM 33.8 °F 23.2 °F 32.0 °F 93% 30.22 in 10.0 mi North 17.3 mph - N/A   Overcast
12:35 AM 33.8 °F 23.9 °F 32.0 °F 93% 30.22 in 10.0 mi North 15.0 mph - N/A   Overcast
12:55 AM 33.8 °F 25.3 °F 32.0 °F 93% 30.22 in 10.0 mi North 11.5 mph - N/A   Overcast
1:15 AM 33.8 °F 24.8 °F 32.0 °F 93% 30.21 in 7.0 mi North 12.7 mph - N/A   Overcast
1:35 AM 33.8 °F 24.8 °F 32.0 °F 93% 30.21 in 4.0 mi NNW 12.7 mph - N/A   Overcast
1:55 AM 33.8 °F 24.3 °F 32.0 °F 93% 30.19 in 4.0 mi NNW 13.8 mph - N/A   Overcast
2:15 AM 33.8 °F 23.5 °F 32.0 °F 93% 30.17 in 5.0 mi North 16.1 mph 20.7 mph N/A   Overcast
2:35 AM 33.8 °F 23.2 °F 32.0 °F 93% 30.16 in 7.0 mi North 17.3 mph 21.9 mph N/A   Overcast
2:55 AM 33.8 °F 23.5 °F 32.0 °F 93% 30.16 in 7.0 mi North 16.1 mph - 0.01 in   Overcast
3:15 AM 33.8 °F 23.2 °F 32.0 °F 93% 30.16 in 7.0 mi North 17.3 mph 24.2 mph N/A   Overcast
3:35 AM 33.8 °F 23.5 °F 32.0 °F 93% 30.16 in 7.0 mi North 16.1 mph - 0.01 in   Overcast
3:55 AM 33.8 °F 24.3 °F 32.0 °F 93% 30.16 in 7.0 mi North 13.8 mph 17.3 mph 0.02 in   Overcast
4:15 AM 33.8 °F 23.2 °F 32.0 °F 93% 30.15 in 7.0 mi North 17.3 mph - N/A   Overcast
4:35 AM 33.8 °F 23.5 °F 32.0 °F 93% 30.14 in 7.0 mi North 16.1 mph - 0.01 in   Overcast
4:55 AM 33.8 °F 23.5 °F 32.0 °F 93% 30.14 in 7.0 mi North 16.1 mph - 0.01 in   Overcast
5:15 AM 33.8 °F 23.2 °F 32.0 °F 93% 30.13 in 10.0 mi North 17.3 mph - 0.01 in   Overcast
5:35 AM 33.8 °F 23.5 °F 32.0 °F 93% 30.13 in 10.0 mi North 16.1 mph - 0.01 in   Overcast
5:55 AM 33.8 °F 23.5 °F 32.0 °F 93% 30.12 in 10.0 mi North 16.1 mph - 0.01 in   Overcast
6:15 AM 33.8 °F 23.2 °F 32.0 °F 93% 30.11 in 10.0 mi North 17.3 mph - N/A   Overcast
6:35 AM 33.8 °F 23.5 °F 32.0 °F 93% 30.12 in 10.0 mi NNE 16.1 mph 20.7 mph N/A   Overcast
6:55 AM 33.8 °F 23.5 °F 32.0 °F 93% 30.11 in 10.0 mi NNE 16.1 mph - N/A   Overcast
7:15 AM 33.8 °F 23.2 °F 32.0 °F 93% 30.12 in 10.0 mi NNE 17.3 mph - N/A   Overcast
7:35 AM 33.8 °F 23.5 °F 32.0 °F 93% 30.12 in 10.0 mi NNE 16.1 mph 21.9 mph N/A   Overcast
7:55 AM 33.8 °F 23.2 °F 32.0 °F 93% 30.10 in 7.0 mi North 17.3 mph - N/A   Overcast
8:35 AM 33.8 °F 24.3 °F 32.0 °F 93% 30.11 in 7.0 mi North 13.8 mph - N/A   Overcast
8:55 AM 33.8 °F 24.3 °F 32.0 °F 93% 30.09 in 5.0 mi NNE 13.8 mph - 0.01 in   Overcast
9:15 AM 33.8 °F 24.3 °F 32.0 °F 93% 30.08 in 4.0 mi North 13.8 mph - 0.02 in   Overcast
9:35 AM 33.8 °F 25.8 °F 32.0 °F 93% 30.09 in 3.0 mi North 10.4 mph - 0.03 in   Overcast
9:55 AM 35.6 °F 28.6 °F 32.0 °F 87% 30.09 in 7.0 mi North 9.2 mph - 0.04 in   Overcast
10:15 AM 35.6 °F 27.1 °F 32.0 °F 87% 30.09 in 5.0 mi North 12.7 mph - 0.01 in   Overcast
10:35 AM 35.6 °F 26.6 °F 32.0 °F 87% 30.07 in 4.0 mi North 13.8 mph - 0.04 in   Overcast
10:55 AM 35.6 °F 26.6 °F 33.8 °F 93% 30.07 in 4.0 mi North 13.8 mph - 0.06 in   Overcast
11:15 AM 35.6 °F 25.9 °F 33.8 °F 93% 30.06 in 5.0 mi NNE 16.1 mph - 0.01 in   Overcast
11:35 AM 37.4 °F 26.9 °F 33.8 °F 87% 30.04 in 10.0 mi NNE 20.7 mph - 0.02 in   Overcast
11:55 AM 37.4 °F 27.2 °F 33.8 °F 87% 30.03 in 10.0 mi NNE 19.6 mph - 0.02 in   Overcast
12:15 PM 37.4 °F 27.8 °F 33.8 °F 87% 30.03 in 7.0 mi NNE 17.3 mph 23.0 mph 0.01 in   Overcast
12:35 PM 37.4 °F 28.5 °F 33.8 °F 87% 30.03 in 2.5 mi NNE 15.0 mph 18.4 mph 0.06 in   Overcast
12:55 PM 37.4 °F 30.8 °F 35.6 °F 93% 30.05 in 3.0 mi NE 9.2 mph 18.4 mph 0.10 in   Overcast
1:15 PM 37.4 °F 29.8 °F 35.6 °F 93% 30.04 in 2.5 mi NNE 11.5 mph - 0.07 in   Overcast
1:35 PM 37.4 °F 29.8 °F 35.6 °F 93% 30.03 in 5.0 mi NNE 11.5 mph - 0.10 in   Overcast
1:55 PM 39.2 °F 31.2 °F 35.6 °F 87% 30.02 in 10.0 mi NNE 13.8 mph - 0.12 in   Overcast
2:15 PM 39.2 °F 32.5 °F 35.6 °F 87% 30.02 in 10.0 mi NNE 10.4 mph - 0.02 in   Overcast
2:35 PM 41.0 °F 33.9 °F 37.4 °F 87% 30.02 in 10.0 mi NNE 12.7 mph - 0.03 in   Overcast
2:55 PM 41.0 °F 33.5 °F 37.4 °F 87% 30.01 in 10.0 mi NNE 13.8 mph - 0.04 in   Overcast
3:15 PM 41.0 °F 33.9 °F 37.4 °F 87% 30.01 in 7.0 mi North 12.7 mph - 0.01 in   Overcast
3:35 PM 41.0 °F 33.1 °F 37.4 °F 87% 30.01 in 5.0 mi NNE 15.0 mph - 0.05 in   Overcast
3:55 PM 41.0 °F 33.1 °F 37.4 °F 87% 30.00 in 7.0 mi NNE 15.0 mph - 0.06 in   Overcast
4:15 PM 41.0 °F 33.9 °F 37.4 °F 87% 30.00 in 10.0 mi NNE 12.7 mph - 0.01 in   Overcast
4:35 PM 41.0 °F 33.1 °F 37.4 °F 87% 30.00 in 10.0 mi NNE 15.0 mph - 0.02 in   Overcast
4:55 PM 42.8 °F 34.8 °F 39.2 °F 87% 29.98 in 10.0 mi NNE 17.3 mph 20.7 mph 0.03 in   Overcast
5:15 PM 42.8 °F 35.4 °F 39.2 °F 87% 29.99 in 10.0 mi NNE 15.0 mph 20.7 mph N/A   Overcast
5:35 PM 42.8 °F 35.1 °F 39.2 °F 87% 29.97 in 10.0 mi NNE 16.1 mph - N/A   Overcast
5:55 PM 42.8 °F 35.4 °F 39.2 °F 87% 29.98 in 10.0 mi NNE 15.0 mph - N/A   Overcast
6:15 PM 42.8 °F 36.6 °F 39.2 °F 87% 29.99 in 10.0 mi NE 11.5 mph 17.3 mph 0.01 in   Overcast
6:35 PM 42.8 °F 37.5 °F 39.2 °F 87% 29.99 in 5.0 mi NE 9.2 mph - 0.05 in   Overcast
6:55 PM 42.8 °F 38.6 °F 41.0 °F 93% 30.00 in 4.0 mi North 6.9 mph - 0.12 in   Overcast
7:15 PM 42.8 °F 36.2 °F 41.0 °F 93% 29.98 in 5.0 mi North 12.7 mph - 0.02 in   Overcast
7:35 PM 42.8 °F 36.2 °F 41.0 °F 93% 29.99 in 10.0 mi North 12.7 mph - 0.03 in   Overcast
7:55 PM 42.8 °F 35.4 °F 41.0 °F 93% 29.97 in 10.0 mi NNE 15.0 mph - 0.03 in   Overcast
8:15 PM 42.8 °F 35.8 °F 41.0 °F 93% 29.98 in 10.0 mi NNE 13.8 mph - N/A   Overcast
8:35 PM 42.8 °F 35.8 °F 41.0 °F 93% 29.98 in 10.0 mi NNE 13.8 mph - N/A   Overcast
8:55 PM 42.8 °F 35.4 °F 41.0 °F 93% 29.98 in 7.0 mi NNE 15.0 mph - N/A   Overcast
9:15 PM 42.8 °F 35.8 °F 41.0 °F 93% 29.98 in 4.0 mi NNE 13.8 mph - N/A   Overcast
9:35 PM 42.8 °F 35.4 °F 42.8 °F 100% 29.98 in 2.5 mi NNE 15.0 mph 19.6 mph N/A   Overcast
9:55 PM 44.6 °F 38.4 °F 42.8 °F 93% 29.98 in 2.0 mi NNE 12.7 mph - N/A   Overcast
10:15 PM 44.6 °F 39.2 °F 42.8 °F 93% 29.98 in 2.0 mi NE 10.4 mph 17.3 mph N/A   Overcast
10:35 PM 44.6 °F 39.2 °F 42.8 °F 93% 29.97 in 1.8 mi NNE 10.4 mph 17.3 mph N/A   Overcast
10:55 PM 44.6 °F 38.8 °F 42.8 °F 93% 29.97 in 2.0 mi NE 11.5 mph 16.1 mph N/A   Overcast
11:15 PM 44.6 °F 39.2 °F 42.8 °F 93% 29.97 in 3.0 mi NE 10.4 mph - N/A   Overcast
11:35 PM 44.6 °F 39.7 °F 42.8 °F 93% 29.96 in 3.0 mi NE 9.2 mph - N/A   Overcast
11:55 PM 46.4 °F 40.7 °F 44.6 °F 93% 29.96 in 4.0 mi NE 12.7 mph 17.3 mph N/A   Overcast